Terminal Aerodrome Forecast
Issued by NWS

Home | Current Version | Previous Version | Text Only | Print | Product List | Glossary On
Versions: 1 2 3 4 5 6 7 8 9 10 11 12 13 14 15
000
FTUS45 KLKN 182300
TAFEKO
TAF
KEKO 182336Z 1900/1924 25006KT P6SM VCSH SCT070
     FM190200 VRB04KT P6SM SCT060
     FM191900 26013G23KT P6SM VCSH BKN050=

USA.gov is the U.S. government's official web portal to all federal, state and local government web resources and services.